Time;durP1;ratioP1;P1;durP2;ratioP2;P2;SDS_P1;SDS_P2;PMS_P1;PMS_P2;Temp;Humidity;BMP_temperature;BMP_pressure;BME280_temperature;BME280_humidity;BME280_pressure;Samples;Min_cycle;Max_cycle;Signal;HPM_P1;HPM_P2
2022/10/23 00:00:51;;;;;;;8.50;6.50;;;;;;;;;;105799;1286;24185;-26
2022/10/23 00:03:38;;;;;;;7.80;6.50;;;;;;;;;;105776;1287;25357;-26
2022/10/23 00:06:12;;;;;;;7.10;5.90;;;;;;;;;;105757;1288;22466;-26
2022/10/23 00:08:47;;;;;;;7.20;5.90;;;;;;;;;;105676;1298;22552;-26
2022/10/23 00:11:25;;;;;;;7.10;6.20;;;;;;;;;;105751;1294;22461;-26
2022/10/23 00:14:00;;;;;;;7.60;6.40;;;;;;;;;;105692;1285;22511;-26
2022/10/23 00:16:32;;;;;;;7.30;6.20;;;;;;;;;;105719;1279;23981;-26
2022/10/23 00:19:08;;;;;;;7.80;6.30;;;;;;;;;;105729;1295;23799;-27
2022/10/23 00:21:43;;;;;;;7.40;6.00;;;;;;;;;;105765;1287;22500;-27
2022/10/23 00:24:16;;;;;;;7.40;6.10;;;;;;;;;;105756;1287;24765;-27
2022/10/23 00:26:50;;;;;;;7.70;6.20;;;;;;;;;;105702;1288;23818;-26
2022/10/23 00:29:23;;;;;;;7.60;6.40;;;;;;;;;;105698;1295;22930;-26
2022/10/23 00:31:55;;;;;;;7.90;5.90;;;;;;;;;;105751;1295;22465;-26
2022/10/23 00:34:27;;;;;;;7.20;5.80;;;;;;;;;;105777;1280;22822;-26
2022/10/23 00:36:59;;;;;;;7.20;5.70;;;;;;;;;;105753;1288;22479;-26
2022/10/23 00:39:31;;;;;;;7.10;6.20;;;;;;;;;;105817;1280;22486;-26
2022/10/23 00:42:03;;;;;;;8.00;6.60;;;;;;;;;;105808;1295;22479;-26
2022/10/23 00:45:25;;;;;;;6.90;5.90;;;;;;;;;;105849;1288;22486;-26
2022/10/23 00:47:58;;;;;;;7.30;6.20;;;;;;;;;;105194;1301;22546;-26
2022/10/23 00:50:33;;;;;;;7.30;6.30;;;;;;;;;;105201;1295;22540;-26
2022/10/23 00:53:07;;;;;;;7.60;5.90;;;;;;;;;;105369;1285;22476;-26
2022/10/23 00:55:44;;;;;;;7.30;6.50;;;;;;;;;;105523;1297;22495;-26
2022/10/23 00:58:19;;;;;;;7.50;6.20;;;;;;;;;;105610;1296;22492;-26
2022/10/23 01:00:56;;;;;;;7.90;6.60;;;;;;;;;;105808;1295;22676;-26
2022/10/23 01:03:31;;;;;;;7.00;6.10;;;;;;;;;;105814;1294;22473;-26
2022/10/23 01:06:15;;;;;;;7.50;6.30;;;;;;;;;;105818;1279;22479;-26
2022/10/23 01:08:54;;;;;;;8.00;6.30;;;;;;;;;;105739;1294;23750;-26
2022/10/23 01:11:32;;;;;;;7.40;5.90;;;;;;;;;;105746;1295;22459;-26
2022/10/23 01:14:17;;;;;;;6.90;5.80;;;;;;;;;;105739;1295;22546;-26
2022/10/23 01:17:03;;;;;;;8.40;6.40;;;;;;;;;;105742;1301;22472;-26
2022/10/23 01:19:56;;;;;;;7.50;6.30;;;;;;;;;;105733;1298;22540;-26
2022/10/23 01:22:52;;;;;;;6.90;6.10;;;;;;;;;;105819;1293;22600;-26
2022/10/23 01:25:39;;;;;;;7.80;6.50;;;;;;;;;;105815;1280;23837;-26
2022/10/23 01:28:18;;;;;;;7.20;6.00;;;;;;;;;;105793;1284;22483;-26
2022/10/23 01:30:51;;;;;;;7.30;6.60;;;;;;;;;;105736;1289;22476;-26
2022/10/23 01:33:27;;;;;;;7.10;6.20;;;;;;;;;;105752;1295;22454;-26
2022/10/23 01:36:06;;;;;;;7.10;6.00;;;;;;;;;;105744;1292;22464;-26
2022/10/23 01:38:44;;;;;;;7.70;6.60;;;;;;;;;;105706;1294;22499;-26
2022/10/23 01:41:24;;;;;;;7.40;6.10;;;;;;;;;;105784;1279;22469;-26
2022/10/23 01:44:00;;;;;;;7.10;5.80;;;;;;;;;;105789;1280;22468;-26
2022/10/23 01:46:36;;;;;;;7.60;6.00;;;;;;;;;;105839;1298;22474;-26
2022/10/23 01:49:12;;;;;;;7.10;5.80;;;;;;;;;;105767;1294;22491;-26
2022/10/23 01:51:48;;;;;;;7.20;6.10;;;;;;;;;;105752;1296;22458;-26
2022/10/23 01:54:25;;;;;;;7.50;6.20;;;;;;;;;;105706;1287;22472;-26
2022/10/23 01:56:59;;;;;;;7.70;6.00;;;;;;;;;;105764;1295;22494;-26
2022/10/23 01:59:36;;;;;;;7.10;6.10;;;;;;;;;;105741;1292;23818;-26
2022/10/23 02:02:12;;;;;;;7.90;6.50;;;;;;;;;;105772;1298;25219;-26
2022/10/23 02:04:53;;;;;;;7.10;6.10;;;;;;;;;;105812;1289;22476;-26
2022/10/23 02:07:27;;;;;;;7.00;6.00;;;;;;;;;;105810;1289;23868;-26
2022/10/23 02:10:17;;;;;;;8.60;6.80;;;;;;;;;;105704;1284;22480;-26
2022/10/23 02:13:02;;;;;;;8.00;6.40;;;;;;;;;;105697;1294;22501;-26
2022/10/23 02:15:39;;;;;;;7.40;6.30;;;;;;;;;;105692;1298;22583;-26
2022/10/23 02:18:27;;;;;;;7.80;6.40;;;;;;;;;;105708;1286;22464;-26
2022/10/23 02:21:04;;;;;;;8.80;6.70;;;;;;;;;;105762;1294;22583;-26
2022/10/23 02:23:41;;;;;;;8.00;6.30;;;;;;;;;;105799;1285;22586;-26
2022/10/23 02:26:20;;;;;;;8.20;6.70;;;;;;;;;;105788;1292;22473;-26
2022/10/23 02:28:57;;;;;;;8.00;6.10;;;;;;;;;;105788;1289;25300;-26
2022/10/23 02:31:30;;;;;;;7.40;6.30;;;;;;;;;;105706;1300;22475;-26
2022/10/23 02:34:02;;;;;;;8.10;6.50;;;;;;;;;;105741;1294;22867;-26
2022/10/23 02:36:34;;;;;;;8.80;7.20;;;;;;;;;;105692;1294;22473;-26
2022/10/23 02:39:07;;;;;;;8.40;6.80;;;;;;;;;;105723;1280;22469;-26
2022/10/23 02:41:46;;;;;;;8.30;6.80;;;;;;;;;;105780;1294;25454;-26
2022/10/23 02:44:30;;;;;;;8.70;7.10;;;;;;;;;;105763;1281;22523;-26
2022/10/23 02:47:21;;;;;;;8.60;7.10;;;;;;;;;;105810;1295;22472;-26
2022/10/23 02:50:04;;;;;;;8.10;6.70;;;;;;;;;;105748;1291;22474;-26
2022/10/23 02:52:45;;;;;;;8.00;7.00;;;;;;;;;;105739;1295;22495;-26
2022/10/23 02:55:33;;;;;;;8.70;7.00;;;;;;;;;;105711;1294;22500;-26
2022/10/23 02:58:14;;;;;;;8.80;6.80;;;;;;;;;;105709;1294;22622;-26
2022/10/23 03:00:52;;;;;;;8.60;7.10;;;;;;;;;;105711;1289;22474;-26
2022/10/23 03:03:35;;;;;;;7.90;6.70;;;;;;;;;;105800;1295;22480;-26
2022/10/23 03:06:09;;;;;;;8.00;7.20;;;;;;;;;;105798;1295;22560;-26
2022/10/23 03:08:55;;;;;;;7.90;6.80;;;;;;;;;;105829;1292;22476;-26
2022/10/23 03:11:27;;;;;;;8.70;7.00;;;;;;;;;;105731;1287;22512;-26
2022/10/23 03:14:00;;;;;;;8.20;7.10;;;;;;;;;;105738;1298;22494;-26
2022/10/23 03:16:33;;;;;;;8.90;7.20;;;;;;;;;;105717;1295;22507;-26
2022/10/23 03:19:05;;;;;;;8.70;7.10;;;;;;;;;;105719;1288;22501;-26
2022/10/23 03:21:37;;;;;;;8.80;7.00;;;;;;;;;;105749;1299;22475;-26
2022/10/23 03:24:12;;;;;;;8.70;7.30;;;;;;;;;;105805;1291;22485;-26
2022/10/23 03:26:44;;;;;;;8.20;6.70;;;;;;;;;;105813;1279;22678;-26
2022/10/23 03:29:16;;;;;;;8.70;7.20;;;;;;;;;;105800;1281;22465;-26
2022/10/23 03:31:48;;;;;;;8.90;7.50;;;;;;;;;;105703;1285;22475;-26
2022/10/23 03:34:20;;;;;;;9.20;7.60;;;;;;;;;;105736;1294;25452;-26
2022/10/23 03:36:53;;;;;;;8.90;7.20;;;;;;;;;;105735;1292;22521;-26
2022/10/23 03:39:25;;;;;;;8.50;7.50;;;;;;;;;;105728;1280;22546;-26
2022/10/23 03:41:58;;;;;;;9.50;7.20;;;;;;;;;;105729;1288;26539;-26
2022/10/23 03:44:31;;;;;;;9.30;7.60;;;;;;;;;;105783;1294;22451;-26
2022/10/23 03:47:03;;;;;;;9.40;7.80;;;;;;;;;;105830;1296;22461;-26
2022/10/23 03:49:35;;;;;;;8.70;7.50;;;;;;;;;;105810;1295;22476;-26
2022/10/23 03:52:09;;;;;;;8.30;7.30;;;;;;;;;;105694;1301;22515;-26
2022/10/23 03:54:40;;;;;;;9.00;7.80;;;;;;;;;;105708;1286;22655;-26
2022/10/23 03:57:13;;;;;;;9.10;8.00;;;;;;;;;;105719;1286;22481;-26
2022/10/23 03:59:47;;;;;;;8.30;7.30;;;;;;;;;;105725;1294;22481;-26
2022/10/23 04:02:21;;;;;;;9.70;8.30;;;;;;;;;;105711;1296;22462;-26
2022/10/23 04:04:54;;;;;;;8.90;7.70;;;;;;;;;;105826;1293;22490;-26
2022/10/23 04:07:29;;;;;;;8.90;7.70;;;;;;;;;;105824;1285;22518;-26
2022/10/23 04:10:01;;;;;;;9.50;7.80;;;;;;;;;;105805;1298;22584;-26
2022/10/23 04:12:35;;;;;;;8.90;7.80;;;;;;;;;;105724;1292;22457;-26
2022/10/23 04:15:13;;;;;;;9.00;7.80;;;;;;;;;;105748;1293;22488;-26
2022/10/23 04:17:45;;;;;;;9.90;7.90;;;;;;;;;;105772;1273;22471;-26
2022/10/23 04:20:18;;;;;;;9.00;7.60;;;;;;;;;;105748;1300;22606;-26
2022/10/23 04:22:52;;;;;;;9.20;8.10;;;;;;;;;;105758;1289;22478;-26
2022/10/23 04:25:24;;;;;;;9.50;7.70;;;;;;;;;;105788;1285;22595;-26
2022/10/23 04:27:56;;;;;;;9.80;7.90;;;;;;;;;;105804;1295;25263;-26
2022/10/23 04:30:30;;;;;;;9.10;8.00;;;;;;;;;;105797;1298;22483;-26
2022/10/23 04:33:02;;;;;;;9.30;7.40;;;;;;;;;;105739;1287;22551;-26
2022/10/23 04:35:34;;;;;;;8.90;7.50;;;;;;;;;;105739;1294;22557;-26
2022/10/23 04:38:06;;;;;;;9.20;8.10;;;;;;;;;;105731;1293;26391;-26
2022/10/23 04:40:39;;;;;;;9.30;8.30;;;;;;;;;;105754;1300;21703;-26
2022/10/23 04:43:11;;;;;;;8.90;7.80;;;;;;;;;;105749;1283;22490;-26
2022/10/23 04:45:43;;;;;;;9.40;8.10;;;;;;;;;;105800;1291;25658;-26
2022/10/23 04:48:15;;;;;;;8.90;7.80;;;;;;;;;;105787;1294;22538;-26
2022/10/23 04:50:56;;;;;;;8.90;8.00;;;;;;;;;;105808;1301;22606;-26
2022/10/23 04:53:29;;;;;;;9.60;8.20;;;;;;;;;;105742;1295;22558;-26
2022/10/23 04:56:02;;;;;;;9.30;8.10;;;;;;;;;;105781;1299;23970;-26
2022/10/23 04:58:34;;;;;;;9.40;7.70;;;;;;;;;;105730;1298;22461;-26
2022/10/23 05:01:09;;;;;;;9.00;7.50;;;;;;;;;;105734;1294;22629;-26
2022/10/23 05:03:41;;;;;;;8.90;7.80;;;;;;;;;;105780;1296;22458;-26
2022/10/23 05:06:13;;;;;;;9.30;8.00;;;;;;;;;;105830;1289;22481;-26
2022/10/23 05:08:45;;;;;;;9.60;7.70;;;;;;;;;;105820;1286;22610;-26
2022/10/23 05:11:18;;;;;;;9.90;8.00;;;;;;;;;;105783;1294;22461;-26
2022/10/23 05:13:50;;;;;;;8.90;7.60;;;;;;;;;;105739;1298;22468;-26
2022/10/23 05:16:35;;;;;;;8.90;7.70;;;;;;;;;;105744;1292;22456;-26
2022/10/23 05:19:09;;;;;;;9.40;8.20;;;;;;;;;;105727;1281;22607;-26
2022/10/23 05:21:42;;;;;;;8.80;7.50;;;;;;;;;;105737;1289;25240;-26
2022/10/23 05:24:15;;;;;;;9.30;8.00;;;;;;;;;;105761;1286;22448;-26
2022/10/23 05:26:52;;;;;;;10.00;8.20;;;;;;;;;;105795;1295;22533;-26
2022/10/23 05:29:25;;;;;;;9.30;7.90;;;;;;;;;;105831;1299;22479;-26
2022/10/23 05:32:02;;;;;;;9.10;7.80;;;;;;;;;;105833;1299;22475;-26
2022/10/23 05:34:38;;;;;;;9.50;8.00;;;;;;;;;;105750;1291;22465;-26
2022/10/23 05:37:14;;;;;;;8.80;7.50;;;;;;;;;;105782;1291;22461;-26
2022/10/23 05:39:46;;;;;;;9.60;7.80;;;;;;;;;;105736;1279;25400;-26
2022/10/23 05:42:18;;;;;;;8.70;7.60;;;;;;;;;;105800;1300;22472;-26
2022/10/23 05:44:50;;;;;;;9.80;7.70;;;;;;;;;;105767;1301;22475;-26
2022/10/23 05:47:22;;;;;;;9.10;7.80;;;;;;;;;;105810;1293;22590;-26
2022/10/23 05:49:55;;;;;;;8.80;7.40;;;;;;;;;;105808;1292;25544;-26
2022/10/23 05:52:27;;;;;;;9.70;7.70;;;;;;;;;;105782;1293;22505;-26
2022/10/23 05:54:59;;;;;;;8.20;6.90;;;;;;;;;;105714;1301;22465;-26
2022/10/23 05:57:36;;;;;;;8.70;7.40;;;;;;;;;;105742;1299;23822;-26
2022/10/23 06:00:12;;;;;;;8.50;6.80;;;;;;;;;;105727;1298;23848;-26
2022/10/23 06:02:44;;;;;;;7.70;6.60;;;;;;;;;;105742;1285;25253;-26
2022/10/23 06:05:16;;;;;;;8.10;6.60;;;;;;;;;;105766;1286;23859;-26
2022/10/23 06:07:48;;;;;;;8.50;6.90;;;;;;;;;;105811;1301;22959;-26
2022/10/23 06:10:20;;;;;;;9.20;6.80;;;;;;;;;;105835;1289;25210;-26
2022/10/23 06:12:53;;;;;;;8.00;6.70;;;;;;;;;;105805;1292;22915;-26
2022/10/23 06:15:24;;;;;;;;;;;;;;;;;;105721;1301;22438;-26
2022/10/23 06:17:56;;;;;;;8.10;6.40;;;;;;;;;;105729;1292;22548;-26
2022/10/23 06:20:28;;;;;;;8.30;6.80;;;;;;;;;;105751;1285;22710;-26
2022/10/23 06:23:00;;;;;;;8.20;6.50;;;;;;;;;;105725;1300;25227;-26
2022/10/23 06:25:33;;;;;;;7.60;6.30;;;;;;;;;;105743;1279;22465;-26
2022/10/23 06:28:06;;;;;;;7.80;6.30;;;;;;;;;;105789;1296;22479;-26
2022/10/23 06:30:40;;;;;;;7.90;6.20;;;;;;;;;;105793;1294;22600;-26
2022/10/23 06:33:12;;;;;;;7.80;5.90;;;;;;;;;;105811;1300;22469;-26
2022/10/23 06:35:44;;;;;;;8.00;6.10;;;;;;;;;;105699;1286;22527;-26
2022/10/23 06:38:19;;;;;;;8.20;6.40;;;;;;;;;;105591;1295;215997;-26
2022/10/23 06:40:57;;;;;;;7.80;5.80;;;;;;;;;;105699;1282;25365;-26
2022/10/23 06:43:29;;;;;;;7.20;5.90;;;;;;;;;;105727;1286;24118;-26
2022/10/23 06:46:03;;;;;;;7.40;5.90;;;;;;;;;;105756;1300;22586;-26
2022/10/23 06:48:41;;;;;;;8.20;6.20;;;;;;;;;;105807;1291;25569;-26
2022/10/23 06:51:20;;;;;;;8.10;6.40;;;;;;;;;;105848;1293;22499;-26
2022/10/23 06:53:52;;;;;;;7.30;6.10;;;;;;;;;;105826;1285;22494;-26
2022/10/23 06:56:28;;;;;;;7.10;5.80;;;;;;;;;;105759;1276;22504;-26
2022/10/23 06:59:00;;;;;;;7.50;6.00;;;;;;;;;;105731;1290;23697;-26
2022/10/23 07:01:32;;;;;;;8.50;6.10;;;;;;;;;;105756;1295;22475;-26
2022/10/23 07:04:04;;;;;;;7.50;5.90;;;;;;;;;;105732;1287;23767;-26
2022/10/23 07:06:36;;;;;;;6.80;5.80;;;;;;;;;;105738;1295;22602;-26
2022/10/23 07:09:08;;;;;;;7.90;6.40;;;;;;;;;;105798;1297;22474;-26
2022/10/23 07:11:41;;;;;;;9.00;6.90;;;;;;;;;;105797;1295;22458;-26
2022/10/23 07:14:13;;;;;;;8.00;6.40;;;;;;;;;;105786;1296;22532;-26
2022/10/23 07:16:45;;;;;;;8.30;6.20;;;;;;;;;;105689;1298;22520;-26
2022/10/23 07:19:17;;;;;;;8.30;6.30;;;;;;;;;;105743;1286;25234;-26
2022/10/23 07:21:50;;;;;;;8.40;6.50;;;;;;;;;;105726;1295;25227;-26
2022/10/23 07:24:22;;;;;;;8.70;5.70;;;;;;;;;;105743;1301;22450;-26
2022/10/23 07:26:54;;;;;;;9.00;6.70;;;;;;;;;;105731;1294;22517;-26
2022/10/23 07:29:26;;;;;;;8.20;6.50;;;;;;;;;;105801;1299;22482;-26
2022/10/23 07:31:59;;;;;;;7.80;5.80;;;;;;;;;;105809;1287;25350;-26
2022/10/23 07:34:32;;;;;;;7.60;6.10;;;;;;;;;;105773;1285;25490;-26
2022/10/23 07:37:04;;;;;;;8.00;6.00;;;;;;;;;;105754;1279;26215;-26
2022/10/23 07:39:36;;;;;;;8.20;6.30;;;;;;;;;;105745;1294;22492;-26
2022/10/23 07:42:10;;;;;;;8.90;6.00;;;;;;;;;;105757;1294;23886;-26
2022/10/23 07:44:43;;;;;;;7.30;5.90;;;;;;;;;;105758;1294;22476;-26
2022/10/23 07:47:15;;;;;;;7.90;6.20;;;;;;;;;;105776;1294;22501;-26
2022/10/23 07:49:47;;;;;;;8.50;6.60;;;;;;;;;;105842;1289;22468;-26
2022/10/23 07:52:19;;;;;;;7.70;5.90;;;;;;;;;;105837;1285;22500;-26
2022/10/23 07:54:53;;;;;;;8.60;6.10;;;;;;;;;;105829;1286;22467;-26
2022/10/23 07:57:26;;;;;;;8.10;6.10;;;;;;;;;;105740;1296;22672;-26
2022/10/23 07:59:58;;;;;;;8.60;5.90;;;;;;;;;;105724;1286;22706;-26
2022/10/23 08:02:30;;;;;;;8.50;5.70;;;;;;;;;;105743;1301;22475;-26
2022/10/23 08:05:03;;;;;;;7.80;6.10;;;;;;;;;;105713;1287;26036;-26
2022/10/23 08:07:37;;;;;;;6.90;5.80;;;;;;;;;;105810;1295;22450;-26
2022/10/23 08:10:13;;;;;;;9.20;6.50;;;;;;;;;;105816;1283;22480;-26
2022/10/23 08:12:45;;;;;;;8.40;6.40;;;;;;;;;;105819;1289;22467;-26
2022/10/23 08:15:17;;;;;;;7.60;5.90;;;;;;;;;;105834;1293;25457;-26
2022/10/23 08:17:49;;;;;;;7.60;6.10;;;;;;;;;;105718;1295;22464;-26
2022/10/23 08:20:22;;;;;;;7.10;5.60;;;;;;;;;;105742;1300;22664;-26
2022/10/23 08:22:55;;;;;;;7.50;6.30;;;;;;;;;;105750;1294;23808;-26
2022/10/23 08:25:27;;;;;;;8.00;5.90;;;;;;;;;;105745;1296;22463;-26
2022/10/23 08:27:59;;;;;;;8.60;6.40;;;;;;;;;;105716;1295;23074;-26
2022/10/23 08:30:31;;;;;;;9.20;7.10;;;;;;;;;;105824;1292;22709;-26
2022/10/23 08:33:06;;;;;;;8.90;7.10;;;;;;;;;;105833;1294;22513;-26
2022/10/23 08:35:41;;;;;;;10.00;8.20;;;;;;;;;;105830;1286;22748;-26
2022/10/23 08:38:14;;;;;;;9.40;8.30;;;;;;;;;;105747;1287;24660;-26
2022/10/23 08:40:48;;;;;;;9.80;8.80;;;;;;;;;;105756;1293;25017;-26
2022/10/23 08:43:32;;;;;;;11.50;10.00;;;;;;;;;;105760;1300;22490;-26
2022/10/23 08:46:10;;;;;;;13.60;11.80;;;;;;;;;;105729;1294;22512;-26
2022/10/23 08:48:48;;;;;;;12.10;10.80;;;;;;;;;;105743;1288;22872;-26
2022/10/23 08:51:26;;;;;;;12.80;11.50;;;;;;;;;;105801;1295;22493;-26
2022/10/23 08:54:05;;;;;;;12.60;11.20;;;;;;;;;;105767;1286;22483;-26
2022/10/23 08:56:42;;;;;;;12.50;11.20;;;;;;;;;;105806;1280;22712;-26
2022/10/23 08:59:26;;;;;;;13.30;12.10;;;;;;;;;;105737;1279;22475;-26
2022/10/23 09:02:10;;;;;;;14.30;12.30;;;;;;;;;;105757;1295;22462;-26
2022/10/23 09:04:43;;;;;;;12.80;11.50;;;;;;;;;;105742;1286;23841;-26
2022/10/23 09:07:28;;;;;;;12.60;11.30;;;;;;;;;;105700;1292;22658;-26
2022/10/23 09:10:14;;;;;;;13.40;12.00;;;;;;;;;;105823;1294;22480;-26
2022/10/23 09:12:47;;;;;;;13.40;12.10;;;;;;;;;;105828;1294;22468;-26
2022/10/23 09:15:27;;;;;;;12.40;11.20;;;;;;;;;;105793;1288;22461;-26
2022/10/23 09:18:13;;;;;;;12.50;11.20;;;;;;;;;;105755;1286;23815;-26
2022/10/23 09:20:49;;;;;;;12.10;10.80;;;;;;;;;;105779;1295;22413;-26
2022/10/23 09:23:23;;;;;;;12.70;11.20;;;;;;;;;;105748;1280;23848;-26
2022/10/23 09:25:55;;;;;;;12.50;11.20;;;;;;;;;;105756;1289;22520;-26
2022/10/23 09:28:35;;;;;;;14.30;11.50;;;;;;;;;;105704;1301;22471;-26
2022/10/23 09:31:14;;;;;;;12.90;11.40;;;;;;;;;;105816;1290;22521;-26
2022/10/23 09:33:58;;;;;;;13.00;11.00;;;;;;;;;;105805;1295;22466;-26
2022/10/23 09:36:32;;;;;;;12.30;11.00;;;;;;;;;;105592;1284;22465;-26
2022/10/23 09:39:04;;;;;;;12.00;10.70;;;;;;;;;;105517;1295;22461;-26
2022/10/23 09:41:40;;;;;;;11.60;10.40;;;;;;;;;;105582;1291;23856;-26
2022/10/23 09:44:22;;;;;;;11.60;10.40;;;;;;;;;;105614;1279;26641;-26
2022/10/23 09:46:56;;;;;;;11.30;10.10;;;;;;;;;;105598;1295;22484;-26
2022/10/23 09:49:31;;;;;;;10.90;9.70;;;;;;;;;;105508;1297;22513;-26
2022/10/23 09:52:23;;;;;;;11.20;10.00;;;;;;;;;;105489;1298;22475;-26
2022/10/23 09:54:58;;;;;;;11.10;9.60;;;;;;;;;;105492;1289;22663;-26
2022/10/23 09:57:37;;;;;;;11.20;9.50;;;;;;;;;;105532;1291;22478;-26
2022/10/23 10:00:23;;;;;;;11.00;9.70;;;;;;;;;;105499;1291;22467;-26
2022/10/23 10:03:02;;;;;;;10.90;9.80;;;;;;;;;;105570;1288;25312;-26
2022/10/23 10:05:37;;;;;;;11.00;9.30;;;;;;;;;;105578;1289;25239;-26
2022/10/23 10:08:21;;;;;;;11.30;9.50;;;;;;;;;;105610;1295;22472;-26
2022/10/23 10:10:58;;;;;;;10.20;8.70;;;;;;;;;;105592;1297;22461;-26
2022/10/23 10:13:58;;;;;;;10.00;8.80;;;;;;;;;;105501;1282;22496;-26
2022/10/23 10:16:44;;;;;;;10.40;8.70;;;;;;;;;;105523;1294;22480;-26
2022/10/23 10:19:29;;;;;;;10.40;8.90;;;;;;;;;;105514;1288;25321;-26
2022/10/23 10:22:12;;;;;;;10.20;8.70;;;;;;;;;;105602;1277;22505;-26
2022/10/23 10:24:55;;;;;;;10.90;9.40;;;;;;;;;;105594;1282;22476;-26
2022/10/23 10:27:39;;;;;;;;;;;;;;;;;;105621;1299;22446;-26
2022/10/23 10:30:18;;;;;;;8.90;7.90;;;;;;;;;;105488;1279;25475;-26
2022/10/23 10:33:00;;;;;;;10.80;8.60;;;;;;;;;;105532;1298;22474;-26
2022/10/23 10:35:43;;;;;;;10.00;8.60;;;;;;;;;;105544;1289;22478;-26
2022/10/23 10:38:41;;;;;;;10.70;8.70;;;;;;;;;;105602;1288;25484;-26
2022/10/23 10:41:46;;;;;;;9.60;8.60;;;;;;;;;;105573;1281;22484;-26
2022/10/23 10:44:43;;;;;;;9.00;8.10;;;;;;;;;;105620;1300;22504;-26
2022/10/23 10:47:25;;;;;;;9.90;8.60;;;;;;;;;;105601;1294;22528;-26
2022/10/23 10:50:14;;;;;;;9.20;8.20;;;;;;;;;;105618;1296;25529;-26
2022/10/23 10:53:02;;;;;;;8.90;7.80;;;;;;;;;;105728;1295;22507;-26
2022/10/23 10:55:39;;;;;;;9.10;8.10;;;;;;;;;;105725;1295;22483;-26
2022/10/23 10:58:20;;;;;;;10.10;9.00;;;;;;;;;;105762;1279;22480;-27
2022/10/23 11:00:58;;;;;;;9.50;8.40;;;;;;;;;;105641;1289;22475;-27
2022/10/23 11:03:39;;;;;;;10.00;8.50;;;;;;;;;;105611;1295;22520;-27
2022/10/23 11:06:18;;;;;;;10.00;8.40;;;;;;;;;;105611;1288;22489;-26
2022/10/23 11:08:50;;;;;;;9.60;8.20;;;;;;;;;;105626;1294;22633;-26
2022/10/23 11:11:29;;;;;;;10.60;8.60;;;;;;;;;;105666;1294;22898;-26
2022/10/23 11:14:03;;;;;;;10.00;8.60;;;;;;;;;;105755;1295;22475;-26
2022/10/23 11:16:38;;;;;;;9.20;7.60;;;;;;;;;;105732;1286;22501;-26
2022/10/23 11:19:21;;;;;;;10.00;7.80;;;;;;;;;;105526;1297;22477;-26
2022/10/23 11:22:00;;;;;;;9.10;7.70;;;;;;;;;;105612;1286;22471;-26
2022/10/23 11:25:17;;;;;;;10.20;8.30;;;;;;;;;;105616;1288;26428;-27
2022/10/23 11:28:13;;;;;;;10.70;8.10;;;;;;;;;;105627;1289;22468;-27
2022/10/23 11:31:03;;;;;;;10.10;8.50;;;;;;;;;;105614;1288;25363;-27
2022/10/23 11:34:10;;;;;;;10.30;8.10;;;;;;;;;;105732;1280;22555;-27
2022/10/23 11:36:55;;;;;;;8.40;7.40;;;;;;;;;;105558;1297;22503;-26
2022/10/23 11:39:30;;;;;;;10.50;8.30;;;;;;;;;;105567;1289;23812;-26
2022/10/23 11:42:15;;;;;;;10.70;8.40;;;;;;;;;;105544;1295;22524;-26
2022/10/23 11:44:49;;;;;;;9.60;7.90;;;;;;;;;;105572;1288;22477;-26
2022/10/23 11:47:35;;;;;;;11.70;8.10;;;;;;;;;;105575;1295;22495;-26
2022/10/23 11:50:34;;;;;;;8.60;7.60;;;;;;;;;;105510;1295;22475;-26
2022/10/23 11:53:27;;;;;;;9.50;8.10;;;;;;;;;;105458;1279;25748;-26
2022/10/23 11:56:20;;;;;;;9.10;7.80;;;;;;;;;;105563;1297;22478;-26
2022/10/23 11:58:58;;;;;;;9.00;7.40;;;;;;;;;;105538;1295;22471;-27
2022/10/23 12:01:36;;;;;;;9.20;8.10;;;;;;;;;;105545;1290;22499;-27
2022/10/23 12:04:24;;;;;;;10.80;8.20;;;;;;;;;;105587;1294;23959;-27
2022/10/23 12:06:59;;;;;;;8.50;7.40;;;;;;;;;;105564;1295;22475;-27
2022/10/23 12:09:40;;;;;;;8.80;7.70;;;;;;;;;;105526;1289;22471;-27
2022/10/23 12:12:30;;;;;;;9.30;7.40;;;;;;;;;;105497;1285;25467;-27
2022/10/23 12:15:22;;;;;;;9.10;7.50;;;;;;;;;;105525;1294;22490;-27
2022/10/23 12:17:57;;;;;;;9.30;7.90;;;;;;;;;;105542;1282;25288;-27
2022/10/23 12:20:42;;;;;;;9.50;7.90;;;;;;;;;;105533;1281;22478;-27
2022/10/23 12:23:46;;;;;;;8.90;7.80;;;;;;;;;;105507;1297;22510;-27
2022/10/23 12:26:31;;;;;;;9.70;7.80;;;;;;;;;;105564;1281;22468;-27
2022/10/23 12:29:27;;;;;;;8.40;7.50;;;;;;;;;;105597;1296;22459;-27
2022/10/23 12:32:17;;;;;;;9.50;7.50;;;;;;;;;;105463;1281;22497;-27
2022/10/23 12:35:09;;;;;;;8.70;7.60;;;;;;;;;;105603;1297;22692;-27
2022/10/23 12:38:15;;;;;;;7.60;6.70;;;;;;;;;;105750;1273;25211;-27
2022/10/23 12:40:53;;;;;;;8.60;7.10;;;;;;;;;;105713;1292;22495;-26
2022/10/23 12:43:30;;;;;;;8.90;7.70;;;;;;;;;;105660;1288;22537;-26
2022/10/23 12:46:07;;;;;;;8.50;7.60;;;;;;;;;;105636;1288;22481;-26
2022/10/23 12:48:51;;;;;;;9.10;7.50;;;;;;;;;;105637;1296;22477;-26
2022/10/23 12:51:27;;;;;;;8.80;7.30;;;;;;;;;;105641;1280;22461;-26
2022/10/23 12:53:59;;;;;;;8.60;7.50;;;;;;;;;;105676;1286;22470;-26
2022/10/23 12:56:37;;;;;;;8.00;7.10;;;;;;;;;;105743;1281;22469;-26
2022/10/23 12:59:18;;;;;;;8.40;7.60;;;;;;;;;;105721;1294;22501;-27
2022/10/23 13:01:50;;;;;;;7.90;7.00;;;;;;;;;;105743;1280;22628;-27
2022/10/23 13:04:30;;;;;;;8.80;7.50;;;;;;;;;;105634;1294;22483;-27
2022/10/23 13:07:04;;;;;;;7.70;6.80;;;;;;;;;;105662;1295;22492;-26
2022/10/23 13:09:41;;;;;;;8.60;7.00;;;;;;;;;;105644;1288;25218;-26
2022/10/23 13:12:25;;;;;;;7.90;6.80;;;;;;;;;;105622;1292;22465;-26
2022/10/23 13:15:02;;;;;;;8.40;7.10;;;;;;;;;;105729;1295;24045;-26
2022/10/23 13:17:40;;;;;;;8.50;7.00;;;;;;;;;;105740;1289;22668;-26
2022/10/23 13:20:22;;;;;;;9.70;7.40;;;;;;;;;;105724;1288;22482;-26
2022/10/23 13:23:04;;;;;;;8.90;7.70;;;;;;;;;;105691;1288;28208;-26
2022/10/23 13:25:39;;;;;;;9.80;7.50;;;;;;;;;;105636;1294;22501;-26
2022/10/23 13:28:27;;;;;;;9.30;7.60;;;;;;;;;;105657;1288;22492;-26
2022/10/23 13:31:07;;;;;;;8.50;7.20;;;;;;;;;;105679;1281;22531;-26
2022/10/23 13:33:42;;;;;;;9.90;7.50;;;;;;;;;;105718;1288;22488;-26
2022/10/23 13:36:26;;;;;;;8.40;7.40;;;;;;;;;;105737;1295;22472;-26
2022/10/23 13:39:17;;;;;;;8.80;7.90;;;;;;;;;;105795;1280;23077;-26
2022/10/23 13:41:49;;;;;;;9.00;7.90;;;;;;;;;;105747;1294;22466;-27
2022/10/23 13:44:26;;;;;;;8.90;7.90;;;;;;;;;;105689;1285;22490;-26
2022/10/23 13:46:59;;;;;;;9.20;8.00;;;;;;;;;;105757;1295;22528;-26
2022/10/23 13:49:31;;;;;;;8.60;7.70;;;;;;;;;;105716;1294;22544;-27
2022/10/23 13:52:03;;;;;;;8.30;7.30;;;;;;;;;;105697;1282;22553;-27
2022/10/23 13:54:35;;;;;;;8.90;7.80;;;;;;;;;;105695;1289;25409;-27
2022/10/23 13:57:14;;;;;;;9.00;7.50;;;;;;;;;;105715;1294;23525;-27
2022/10/23 13:59:49;;;;;;;8.30;7.20;;;;;;;;;;105741;1291;22515;-27
2022/10/23 14:02:24;;;;;;;8.10;7.30;;;;;;;;;;105696;1282;22501;-27
2022/10/23 14:04:56;;;;;;;8.50;7.60;;;;;;;;;;105730;1295;22502;-27
2022/10/23 14:07:28;;;;;;;7.60;6.80;;;;;;;;;;105724;1292;25433;-27
2022/10/23 14:10:00;;;;;;;8.50;7.40;;;;;;;;;;105712;1279;22462;-27
2022/10/23 14:12:42;;;;;;;8.20;7.30;;;;;;;;;;105753;1282;22478;-26
2022/10/23 14:15:15;;;;;;;8.20;6.90;;;;;;;;;;105728;1289;22866;-26
2022/10/23 14:17:47;;;;;;;8.70;7.10;;;;;;;;;;105751;1282;22499;-26
2022/10/23 14:20:19;;;;;;;8.40;7.30;;;;;;;;;;105711;1273;22469;-26
2022/10/23 14:22:51;;;;;;;8.20;7.20;;;;;;;;;;105722;1292;22486;-26
2022/10/23 14:25:24;;;;;;;8.10;7.30;;;;;;;;;;105699;1295;22496;-26
2022/10/23 14:27:56;;;;;;;8.30;7.40;;;;;;;;;;105730;1295;25204;-26
2022/10/23 14:30:28;;;;;;;8.70;7.10;;;;;;;;;;105715;1285;22517;-26
2022/10/23 14:33:00;;;;;;;8.50;7.10;;;;;;;;;;105735;1294;22471;-26
2022/10/23 14:35:34;;;;;;;8.80;7.20;;;;;;;;;;105725;1294;22719;-26
2022/10/23 14:38:06;;;;;;;7.80;7.00;;;;;;;;;;105601;1294;258485;-26
2022/10/23 14:40:41;;;;;;;7.90;6.80;;;;;;;;;;105815;1285;22457;-26
2022/10/23 14:43:13;;;;;;;8.50;7.00;;;;;;;;;;105819;1279;25374;-26
2022/10/23 14:45:45;;;;;;;7.90;7.10;;;;;;;;;;105739;1286;22462;-26
2022/10/23 14:48:17;;;;;;;7.80;6.60;;;;;;;;;;105708;1288;26486;-26
2022/10/23 14:50:52;;;;;;;8.50;6.70;;;;;;;;;;105735;1291;21759;-26
2022/10/23 14:53:24;;;;;;;7.80;7.00;;;;;;;;;;105758;1278;22466;-26
2022/10/23 14:56:02;;;;;;;8.00;6.60;;;;;;;;;;105741;1295;22476;-26
2022/10/23 14:58:34;;;;;;;8.50;6.50;;;;;;;;;;105811;1294;24369;-26
2022/10/23 15:01:07;;;;;;;9.50;6.80;;;;;;;;;;105769;1288;22474;-26
2022/10/23 15:03:39;;;;;;;8.50;6.90;;;;;;;;;;105804;1295;23894;-26
2022/10/23 15:06:11;;;;;;;7.70;6.60;;;;;;;;;;105734;1289;22675;-26
2022/10/23 15:08:43;;;;;;;8.60;7.00;;;;;;;;;;105768;1295;22488;-26
2022/10/23 15:11:15;;;;;;;8.50;7.00;;;;;;;;;;105734;1289;25176;-26
2022/10/23 15:13:47;;;;;;;7.80;6.80;;;;;;;;;;105719;1295;22476;-26
2022/10/23 15:16:20;;;;;;;8.30;7.00;;;;;;;;;;105724;1295;22458;-26
2022/10/23 15:18:52;;;;;;;9.80;7.70;;;;;;;;;;105786;1278;22548;-26
2022/10/23 15:21:27;;;;;;;10.90;7.70;;;;;;;;;;105812;1294;22466;-26
2022/10/23 15:24:01;;;;;;;10.00;7.70;;;;;;;;;;105797;1295;25876;-26